Time;durP1;ratioP1;P1;durP2;ratioP2;P2;SDS_P1;SDS_P2;PMS_P1;PMS_P2;Temp;Humidity;BMP_temperature;BMP_pressure;BME280_temperature;BME280_humidity;BME280_pressure;Samples;Min_cycle;Max_cycle;Signal;HPM_P1;HPM_P2
2022/08/30 00:02:19;;;;;;;0.60;0.60;;;16.40;99.90;;;;;;5039749;28;20676;-46
2022/08/30 00:04:47;;;;;;;2.10;0.57;;;16.40;99.90;;;;;;5027361;28;20211;-48
2022/08/30 00:07:14;;;;;;;1.43;0.70;;;16.40;99.90;;;;;;5043932;28;20294;-46
2022/08/30 00:09:41;;;;;;;0.73;0.73;;;16.40;99.90;;;;;;5040730;28;20195;-45
2022/08/30 00:12:08;;;;;;;3.67;0.70;;;16.40;99.90;;;;;;5044099;28;20281;-49
2022/08/30 00:14:35;;;;;;;0.80;0.57;;;16.40;99.90;;;;;;5039409;28;20279;-46
2022/08/30 00:17:01;;;;;;;0.83;0.67;;;16.40;99.90;;;;;;5045421;28;20222;-51
2022/08/30 00:19:29;;;;;;;0.80;0.77;;;16.30;99.90;;;;;;5041710;28;20199;-49
2022/08/30 00:21:56;;;;;;;0.80;0.60;;;16.30;99.90;;;;;;5029322;28;20230;-50
2022/08/30 00:24:23;;;;;;;0.63;0.60;;;16.30;99.90;;;;;;5041906;28;20742;-48
2022/08/30 00:26:50;;;;;;;0.80;0.60;;;16.30;99.90;;;;;;5043612;28;20191;-51
2022/08/30 00:29:17;;;;;;;0.83;0.70;;;16.30;99.90;;;;;;5044291;28;20227;-49
2022/08/30 00:31:43;;;;;;;0.97;0.70;;;16.30;99.90;;;;;;5040509;28;20285;-51
2022/08/30 00:34:11;;;;;;;0.70;0.60;;;16.20;99.90;;;;;;5043521;28;20225;-47
2022/08/30 00:36:38;;;;;;;0.67;0.67;;;16.20;99.90;;;;;;5026404;28;20209;-48
2022/08/30 00:39:05;;;;;;;1.97;0.60;;;16.20;99.90;;;;;;5041827;28;20195;-48
2022/08/30 00:41:32;;;;;;;2.27;0.70;;;16.10;99.90;;;;;;5033339;28;20246;-52
2022/08/30 00:43:59;;;;;;;0.70;0.70;;;16.10;99.90;;;;;;5040083;28;20202;-46
2022/08/30 00:46:26;;;;;;;0.70;0.67;;;16.10;99.90;;;;;;5035968;28;20294;-51
2022/08/30 00:48:54;;;;;;;1.57;0.80;;;16.10;99.90;;;;;;5038152;28;20282;-48
2022/08/30 00:51:22;;;;;;;1.20;0.73;;;16.10;99.90;;;;;;5034878;28;20235;-51
2022/08/30 00:53:54;;;;;;;1.50;0.70;;;16.10;99.90;;;;;;5035070;28;20981;-49
2022/08/30 00:56:22;;;;;;;4.43;0.70;;;16.00;99.90;;;;;;5042323;28;20195;-48
2022/08/30 00:58:54;;;;;;;0.70;0.60;;;16.00;99.90;;;;;;5042813;28;20199;-47
2022/08/30 01:01:21;;;;;;;0.70;0.70;;;15.90;99.90;;;;;;5043057;28;20546;-48
2022/08/30 01:03:48;;;;;;;1.13;0.83;;;15.80;99.90;;;;;;5041166;28;20241;-46
2022/08/30 01:06:17;;;;;;;0.97;0.60;;;15.70;99.90;;;;;;5043326;28;20226;-46
2022/08/30 01:08:45;;;;;;;1.00;0.83;;;15.70;99.90;;;;;;5026678;28;20905;-47
2022/08/30 01:11:16;;;;;;;0.83;0.67;;;15.70;99.90;;;;;;5042203;28;20207;-45
2022/08/30 01:13:45;;;;;;;0.80;0.60;;;15.70;99.90;;;;;;5039692;28;20203;-48
2022/08/30 01:16:13;;;;;;;0.67;0.67;;;15.80;99.90;;;;;;5032127;28;20211;-49
2022/08/30 01:18:40;;;;;;;1.17;0.63;;;15.70;99.90;;;;;;5041131;28;20668;-46
2022/08/30 01:21:16;;;;;;;1.13;0.80;;;15.70;99.90;;;;;;5040128;28;20203;-47
2022/08/30 01:23:46;;;;;;;0.80;0.80;;;15.70;99.90;;;;;;5026373;28;20211;-49
2022/08/30 01:26:16;;;;;;;1.47;0.83;;;15.70;99.90;;;;;;5040728;28;20195;-49
2022/08/30 01:28:44;;;;;;;2.33;0.83;;;15.70;99.90;;;;;;5042378;28;20207;-49
2022/08/30 01:31:11;;;;;;;1.23;0.87;;;15.70;99.90;;;;;;5040087;28;20203;-47
2022/08/30 01:33:38;;;;;;;1.43;0.60;;;15.70;99.90;;;;;;5042294;28;20589;-50
2022/08/30 01:36:09;;;;;;;2.77;0.70;;;15.70;99.90;;;;;;5039200;28;20256;-47
2022/08/30 01:38:40;;;;;;;1.17;0.80;;;15.70;99.90;;;;;;5042906;28;20276;-49
2022/08/30 01:41:12;;;;;;;0.87;0.70;;;15.70;99.90;;;;;;5030309;28;20696;-49
2022/08/30 01:43:38;;;;;;;1.23;0.80;;;15.70;99.90;;;;;;5040327;28;20215;-49
2022/08/30 01:46:05;;;;;;;1.60;0.60;;;15.70;99.90;;;;;;5039643;28;20199;-47
2022/08/30 01:48:33;;;;;;;1.10;0.80;;;15.70;99.90;;;;;;5043119;28;20191;-50
2022/08/30 01:51:00;;;;;;;0.97;0.77;;;15.70;99.90;;;;;;5036738;28;20194;-46
2022/08/30 01:53:27;;;;;;;1.67;0.73;;;15.70;99.90;;;;;;5041595;28;20226;-47
2022/08/30 01:55:53;;;;;;;0.90;0.77;;;15.70;99.90;;;;;;5023932;28;20210;-47
2022/08/30 01:58:22;;;;;;;1.10;1.00;;;15.70;99.90;;;;;;5042462;28;20692;-46
2022/08/30 02:00:48;;;;;;;1.73;0.70;;;15.80;99.90;;;;;;5040237;28;20195;-47
2022/08/30 02:03:15;;;;;;;1.37;0.50;;;15.70;99.90;;;;;;5039673;28;20226;-48
2022/08/30 02:05:42;;;;;;;2.17;1.20;;;15.70;99.90;;;;;;5041070;28;20687;-46
2022/08/30 02:08:09;;;;;;;1.00;0.70;;;15.70;99.90;;;;;;5039981;28;20851;-46
2022/08/30 02:10:36;;;;;;;1.10;0.70;;;15.70;99.90;;;;;;5027218;28;20238;-46
2022/08/30 02:13:04;;;;;;;1.40;0.80;;;15.70;99.90;;;;;;5038209;28;20393;-49
2022/08/30 02:15:34;;;;;;;0.90;0.80;;;15.70;99.90;;;;;;5042757;28;20191;-46
2022/08/30 02:18:00;;;;;;;1.03;0.70;;;15.70;99.90;;;;;;5039290;28;20191;-51
2022/08/30 02:20:27;;;;;;;0.97;0.87;;;15.70;99.90;;;;;;5042147;28;20203;-50
2022/08/30 02:22:54;;;;;;;1.07;0.67;;;15.70;99.90;;;;;;5038996;28;20207;-46
2022/08/30 02:25:20;;;;;;;0.67;0.67;;;15.70;99.90;;;;;;5027022;28;20203;-50
2022/08/30 02:27:48;;;;;;;2.97;0.70;;;15.70;99.90;;;;;;5039885;28;20191;-46
2022/08/30 02:30:15;;;;;;;0.83;0.60;;;15.70;99.90;;;;;;5040995;28;20249;-48
2022/08/30 02:32:43;;;;;;;3.00;0.90;;;15.70;99.90;;;;;;5041641;28;20219;-48
2022/08/30 02:35:10;;;;;;;2.20;0.80;;;15.70;99.90;;;;;;5039581;28;20826;-47
2022/08/30 02:37:37;;;;;;;1.47;0.90;;;15.70;99.90;;;;;;5042790;28;20199;-51
2022/08/30 02:40:06;;;;;;;1.83;0.90;;;15.70;99.90;;;;;;5039556;28;20195;-45
2022/08/30 02:42:33;;;;;;;1.70;0.90;;;15.70;99.90;;;;;;5027818;28;20767;-49
2022/08/30 02:45:00;;;;;;;1.13;0.70;;;15.70;99.90;;;;;;5037588;28;20192;-46
2022/08/30 02:47:27;;;;;;;1.33;0.70;;;15.70;99.90;;;;;;5042793;28;20207;-46
2022/08/30 02:49:56;;;;;;;0.50;0.50;;;15.70;99.90;;;;;;5039189;28;20191;-51
2022/08/30 02:52:23;;;;;;;0.83;0.83;;;15.70;99.90;;;;;;5042364;28;20254;-45
2022/08/30 02:54:49;;;;;;;1.40;0.90;;;15.70;99.90;;;;;;5040966;28;20556;-49
2022/08/30 02:57:16;;;;;;;2.07;0.90;;;15.70;99.90;;;;;;5031037;28;20234;-47
2022/08/30 02:59:44;;;;;;;0.80;0.80;;;15.70;99.90;;;;;;5044806;28;20555;-49
2022/08/30 03:02:12;;;;;;;1.20;0.83;;;15.70;99.90;;;;;;5044541;28;20221;-47
2022/08/30 03:04:39;;;;;;;1.73;0.83;;;15.80;99.90;;;;;;5045273;28;20196;-49
2022/08/30 03:07:08;;;;;;;4.03;1.03;;;15.80;99.90;;;;;;5043548;28;20199;-46
2022/08/30 03:09:34;;;;;;;2.33;0.97;;;15.80;99.90;;;;;;5046829;28;20207;-48
2022/08/30 03:12:01;;;;;;;0.87;0.80;;;15.80;99.90;;;;;;5025394;28;20238;-44
2022/08/30 03:14:28;;;;;;;2.30;0.90;;;15.80;99.90;;;;;;5044243;28;20215;-51
2022/08/30 03:16:55;;;;;;;1.10;0.90;;;15.80;99.90;;;;;;5041704;28;20587;-49
2022/08/30 03:19:22;;;;;;;1.40;0.70;;;15.80;99.90;;;;;;5045724;28;20203;-47
2022/08/30 03:21:49;;;;;;;0.97;0.87;;;15.80;99.90;;;;;;5042737;28;20759;-51
2022/08/30 03:24:18;;;;;;;0.93;0.80;;;15.80;99.90;;;;;;5035677;28;20223;-46
2022/08/30 03:26:44;;;;;;;1.23;0.73;;;15.90;99.90;;;;;;5032914;28;20196;-49
2022/08/30 03:29:11;;;;;;;2.13;0.77;;;15.90;99.90;;;;;;5038642;28;20318;-47
2022/08/30 03:31:38;;;;;;;1.43;0.80;;;15.90;99.90;;;;;;5044225;28;20223;-50
2022/08/30 03:34:05;;;;;;;0.90;0.70;;;15.90;99.90;;;;;;5040814;28;20219;-47
2022/08/30 03:36:32;;;;;;;1.40;0.80;;;15.90;99.90;;;;;;5045636;28;20200;-49
2022/08/30 03:38:59;;;;;;;3.30;0.97;;;15.90;99.90;;;;;;5041340;28;20191;-49
2022/08/30 03:41:27;;;;;;;0.60;0.60;;;15.90;99.90;;;;;;5044807;28;20209;-47
2022/08/30 03:43:54;;;;;;;1.80;1.03;;;15.90;99.90;;;;;;5024809;28;20210;-49
2022/08/30 03:46:21;;;;;;;1.20;0.80;;;15.90;99.90;;;;;;5044196;28;20208;-49
2022/08/30 03:48:48;;;;;;;0.97;0.93;;;15.90;99.90;;;;;;5041944;28;20226;-48
2022/08/30 03:51:15;;;;;;;0.70;0.70;;;15.90;99.90;;;;;;5043567;28;20195;-49
2022/08/30 03:53:42;;;;;;;1.57;0.80;;;15.90;99.90;;;;;;5042161;28;20588;-49
2022/08/30 03:56:09;;;;;;;0.97;0.60;;;15.90;99.90;;;;;;5043108;28;20783;-47
2022/08/30 03:58:39;;;;;;;1.43;1.00;;;15.90;99.90;;;;;;5028324;28;20594;-48
2022/08/30 04:01:06;;;;;;;1.33;1.17;;;15.90;99.90;;;;;;5034384;28;20215;-50
2022/08/30 04:03:33;;;;;;;1.83;0.90;;;15.90;99.90;;;;;;5042960;28;20219;-47
2022/08/30 04:06:01;;;;;;;1.10;0.97;;;15.90;99.90;;;;;;5033541;28;20211;-47
2022/08/30 04:08:27;;;;;;;2.47;0.83;;;15.80;99.90;;;;;;5037954;28;20575;-47
2022/08/30 04:10:54;;;;;;;4.63;0.90;;;15.80;99.90;;;;;;5041119;28;20191;-47
2022/08/30 04:13:22;;;;;;;1.80;0.90;;;15.80;99.90;;;;;;5040537;28;20276;-49
2022/08/30 04:15:51;;;;;;;3.37;1.17;;;15.80;99.90;;;;;;5027073;28;20276;-47
2022/08/30 04:18:18;;;;;;;1.57;0.90;;;15.80;99.90;;;;;;5044046;28;20640;-49
2022/08/30 04:20:45;;;;;;;1.17;0.80;;;15.80;99.90;;;;;;5040583;28;20206;-46
2022/08/30 04:23:12;;;;;;;1.10;1.00;;;15.80;99.90;;;;;;5041520;28;20237;-47
2022/08/30 04:25:40;;;;;;;3.73;1.30;;;15.90;99.90;;;;;;5042618;28;20211;-48
2022/08/30 04:28:08;;;;;;;1.70;0.93;;;15.90;99.90;;;;;;5039720;28;20253;-47
2022/08/30 04:30:39;;;;;;;2.43;0.80;;;15.80;99.90;;;;;;5027716;28;20215;-48
2022/08/30 04:33:07;;;;;;;0.87;0.80;;;15.80;99.90;;;;;;5043552;28;20246;-45
2022/08/30 04:35:35;;;;;;;2.97;1.20;;;15.90;99.90;;;;;;5042448;28;20238;-47
2022/08/30 04:38:02;;;;;;;2.73;1.20;;;15.70;99.90;;;;;;5042561;28;20183;-50
2022/08/30 04:40:29;;;;;;;1.30;1.20;;;15.70;99.90;;;;;;5038226;28;20194;-46
2022/08/30 04:42:58;;;;;;;2.60;1.00;;;15.70;99.90;;;;;;5043907;28;20234;-65
2022/08/30 04:45:25;;;;;;;2.10;0.80;;;15.60;99.90;;;;;;5017253;28;20204;-65
2022/08/30 04:47:51;;;;;;;1.63;0.90;;;15.60;99.90;;;;;;5049911;28;20191;-65
2022/08/30 04:50:20;;;;;;;0.90;0.90;;;15.60;99.90;;;;;;5040414;28;20205;-65
2022/08/30 04:52:48;;;;;;;2.10;0.93;;;15.60;99.90;;;;;;5044130;28;20243;-65
2022/08/30 04:55:15;;;;;;;2.07;1.27;;;15.50;99.90;;;;;;5043041;28;20229;-65
2022/08/30 04:57:42;;;;;;;0.97;0.90;;;15.40;99.90;;;;;;5047078;28;20868;-65
2022/08/30 05:00:11;;;;;;;3.93;1.67;;;15.40;99.90;;;;;;5033476;28;20589;-65
2022/08/30 05:02:39;;;;;;;1.87;1.20;;;15.40;99.90;;;;;;5026748;28;20222;-65
2022/08/30 05:07:54;;;;;;;0.90;0.90;;;15.40;99.90;;;;;;5044152;28;20202;-47
2022/08/30 05:10:22;;;;;;;1.33;0.90;;;15.40;99.90;;;;;;5039262;28;20203;-49
2022/08/30 05:12:49;;;;;;;1.97;1.00;;;15.40;99.90;;;;;;5048308;28;20237;-48
2022/08/30 05:15:16;;;;;;;2.20;0.97;;;15.40;99.90;;;;;;5030927;28;20803;-49
2022/08/30 05:17:43;;;;;;;2.83;1.00;;;15.40;99.90;;;;;;5025453;28;20191;-46
2022/08/30 05:20:11;;;;;;;1.30;1.10;;;15.40;99.90;;;;;;5039784;28;20859;-46
2022/08/30 05:22:39;;;;;;;1.83;1.30;;;15.40;99.90;;;;;;5045900;28;20215;-48
2022/08/30 05:25:08;;;;;;;1.60;1.10;;;15.40;99.90;;;;;;5042716;28;20764;-50
2022/08/30 05:27:35;;;;;;;0.90;0.90;;;15.50;99.90;;;;;;5031154;28;20237;-47
2022/08/30 05:30:05;;;;;;;1.30;0.90;;;15.50;99.90;;;;;;5037964;28;20210;-47
2022/08/30 05:32:31;;;;;;;1.90;1.33;;;15.50;99.90;;;;;;5027137;28;20222;-48
2022/08/30 05:34:58;;;;;;;1.70;1.00;;;15.50;99.90;;;;;;5040390;28;20231;-49
2022/08/30 05:37:25;;;;;;;1.73;1.03;;;15.60;99.90;;;;;;5044474;28;20282;-45
2022/08/30 05:39:51;;;;;;;2.63;1.40;;;15.60;99.90;;;;;;5045488;28;20272;-49
2022/08/30 05:42:19;;;;;;;1.20;0.70;;;15.60;99.90;;;;;;5039144;28;20252;-48
2022/08/30 05:44:51;;;;;;;2.20;1.10;;;15.60;99.90;;;;;;5037979;28;20653;-49
2022/08/30 05:47:18;;;;;;;1.73;1.03;;;15.70;99.90;;;;;;5032614;28;20218;-49
2022/08/30 05:49:44;;;;;;;2.13;1.00;;;15.80;99.90;;;;;;5038752;28;20210;-47
2022/08/30 05:52:14;;;;;;;1.63;1.10;;;15.80;99.90;;;;;;5039901;28;20215;-48
2022/08/30 05:54:41;;;;;;;2.70;1.80;;;15.90;99.90;;;;;;5041705;28;20243;-47
2022/08/30 05:57:08;;;;;;;2.83;1.17;;;15.90;99.90;;;;;;5032724;28;20269;-48
2022/08/30 05:59:36;;;;;;;1.07;0.97;;;16.00;99.90;;;;;;5037217;28;20204;-47
2022/08/30 06:02:04;;;;;;;1.27;0.90;;;16.00;99.90;;;;;;5040089;28;20212;-47
2022/08/30 06:04:30;;;;;;;1.20;1.00;;;16.10;99.90;;;;;;5024197;28;20199;-50
2022/08/30 06:06:58;;;;;;;1.40;0.93;;;16.10;99.90;;;;;;5042443;28;20192;-48
2022/08/30 06:09:24;;;;;;;1.07;0.90;;;16.20;99.90;;;;;;5037956;28;20195;-48
2022/08/30 06:11:51;;;;;;;2.00;1.00;;;16.20;99.90;;;;;;5037738;28;20770;-50
2022/08/30 06:14:18;;;;;;;3.13;1.10;;;16.20;99.90;;;;;;5037310;28;20241;-48
2022/08/30 06:16:46;;;;;;;1.33;0.80;;;16.30;99.90;;;;;;5037313;28;20203;-50
2022/08/30 06:19:15;;;;;;;2.33;1.00;;;16.40;99.90;;;;;;5026335;28;20211;-47
2022/08/30 06:21:43;;;;;;;1.43;1.10;;;16.50;99.90;;;;;;5039305;28;20223;-48
2022/08/30 06:24:11;;;;;;;2.13;0.90;;;16.50;99.90;;;;;;5039059;28;20266;-50
2022/08/30 06:26:40;;;;;;;1.10;1.00;;;16.60;99.90;;;;;;5040563;28;20203;-49
2022/08/30 06:29:08;;;;;;;2.30;1.13;;;16.60;99.90;;;;;;5033827;28;20217;-49
2022/08/30 06:31:35;;;;;;;1.63;1.30;;;16.70;99.90;;;;;;5035969;28;20274;-49
2022/08/30 06:34:03;;;;;;;1.43;0.83;;;16.70;99.90;;;;;;5021903;28;20227;-48
2022/08/30 06:36:30;;;;;;;1.90;1.10;;;16.70;99.90;;;;;;5044148;28;20230;-49
2022/08/30 06:38:59;;;;;;;1.53;0.90;;;16.80;99.90;;;;;;5036712;28;20199;-46
2022/08/30 06:41:28;;;;;;;1.97;1.10;;;16.80;99.90;;;;;;5044759;28;20249;-47
2022/08/30 06:43:56;;;;;;;1.70;1.00;;;16.90;99.90;;;;;;5034260;28;22145;-48
2022/08/30 06:46:26;;;;;;;3.00;1.03;;;17.00;99.90;;;;;;5045600;28;20206;-51
2022/08/30 06:48:53;;;;;;;3.10;1.00;;;17.20;99.90;;;;;;5044422;28;20192;-48
2022/08/30 06:51:22;;;;;;;1.97;1.50;;;17.30;99.90;;;;;;5025783;28;20576;-47
2022/08/30 06:53:50;;;;;;;1.23;0.93;;;17.40;99.90;;;;;;5041130;28;20202;-50
2022/08/30 06:56:18;;;;;;;1.70;0.70;;;17.40;99.90;;;;;;5028381;28;20203;-50
2022/08/30 06:58:45;;;;;;;3.27;1.00;;;17.50;99.90;;;;;;5037859;28;20218;-47
2022/08/30 07:01:15;;;;;;;1.27;0.80;;;17.50;99.90;;;;;;5033426;28;20270;-49
2022/08/30 07:03:45;;;;;;;4.00;1.20;;;17.60;99.90;;;;;;5036452;28;20223;-46
2022/08/30 07:06:12;;;;;;;2.53;1.00;;;17.70;99.90;;;;;;5024649;28;20191;-46
2022/08/30 07:08:40;;;;;;;3.07;0.93;;;17.80;99.90;;;;;;5040571;28;20259;-53
2022/08/30 07:11:09;;;;;;;1.63;1.03;;;17.90;99.90;;;;;;5038687;28;20215;-50
2022/08/30 07:13:36;;;;;;;2.80;1.13;;;17.90;99.90;;;;;;5040152;28;20706;-52
2022/08/30 07:16:10;;;;;;;3.50;1.30;;;17.90;99.90;;;;;;5032655;28;20229;-52
2022/08/30 07:18:53;;;;;;;3.67;1.40;;;18.00;99.90;;;;;;5038163;28;20235;-49
2022/08/30 07:21:25;;;;;;;2.13;0.87;;;18.00;99.90;;;;;;5025779;28;20211;-48
2022/08/30 07:23:54;;;;;;;0.93;0.93;;;18.00;99.90;;;;;;5035925;28;20214;-50
2022/08/30 07:26:23;;;;;;;1.43;1.00;;;18.00;99.90;;;;;;5048053;28;20195;-46
2022/08/30 07:28:51;;;;;;;1.40;0.90;;;18.00;99.90;;;;;;5038206;28;20196;-46
2022/08/30 07:31:19;;;;;;;1.13;1.03;;;18.10;99.90;;;;;;5037971;28;20206;-46
2022/08/30 07:33:46;;;;;;;0.90;0.90;;;18.10;99.90;;;;;;5037720;28;20269;-43
2022/08/30 07:36:14;;;;;;;1.53;0.90;;;18.10;99.90;;;;;;5038068;28;20241;-43
2022/08/30 07:38:40;;;;;;;1.30;1.00;;;18.20;99.90;;;;;;5028121;28;20211;-48
2022/08/30 07:41:08;;;;;;;1.00;0.90;;;18.20;99.90;;;;;;5042753;28;20199;-44
2022/08/30 07:43:36;;;;;;;0.97;0.97;;;18.20;99.90;;;;;;5042105;28;20302;-44
2022/08/30 07:46:05;;;;;;;0.70;0.70;;;18.20;99.90;;;;;;5046415;28;20191;-43
2022/08/30 07:48:32;;;;;;;1.33;0.90;;;18.30;99.90;;;;;;5045032;28;20204;-43
2022/08/30 07:50:59;;;;;;;2.33;0.70;;;18.30;99.90;;;;;;5045472;28;20197;-44
2022/08/30 07:53:26;;;;;;;3.00;1.10;;;18.40;99.90;;;;;;5030253;28;20238;-43
2022/08/30 07:55:54;;;;;;;2.40;0.80;;;18.50;99.90;;;;;;5044787;28;20214;-43
2022/08/30 07:58:22;;;;;;;0.90;0.90;;;18.50;99.90;;;;;;5047652;28;20203;-43
2022/08/30 08:00:50;;;;;;;1.30;0.90;;;18.50;99.90;;;;;;5042964;28;20219;-45
2022/08/30 08:03:16;;;;;;;3.20;1.00;;;18.50;99.90;;;;;;5041543;28;20244;-47
2022/08/30 08:05:45;;;;;;;1.40;0.80;;;18.60;99.90;;;;;;5045261;28;20282;-43
2022/08/30 08:08:13;;;;;;;0.80;0.80;;;18.60;99.90;;;;;;5028664;28;20219;-43
2022/08/30 08:10:41;;;;;;;1.63;1.00;;;18.60;99.90;;;;;;5044395;28;20245;-45
2022/08/30 08:13:08;;;;;;;2.80;1.10;;;18.70;99.90;;;;;;5047818;28;20226;-43
2022/08/30 08:15:36;;;;;;;4.43;1.10;;;18.70;99.90;;;;;;5051343;28;20272;-43
2022/08/30 08:18:03;;;;;;;1.13;0.90;;;18.80;99.90;;;;;;5046095;28;20191;-45
2022/08/30 08:20:31;;;;;;;0.90;0.90;;;18.80;99.90;;;;;;5043179;28;20239;-44
2022/08/30 08:22:58;;;;;;;1.70;0.90;;;18.90;99.90;;;;;;5024149;28;20929;-43
2022/08/30 08:25:27;;;;;;;0.70;0.70;;;18.90;99.90;;;;;;5043404;28;20191;-43
2022/08/30 08:27:54;;;;;;;1.40;0.90;;;19.00;99.90;;;;;;5040462;28;20200;-43
2022/08/30 08:30:21;;;;;;;0.60;0.60;;;19.00;99.90;;;;;;5051505;28;20190;-43
2022/08/30 08:32:50;;;;;;;1.07;0.70;;;19.10;99.90;;;;;;5046232;28;20747;-43
2022/08/30 08:35:17;;;;;;;1.03;0.93;;;19.10;99.90;;;;;;5037481;28;20246;-47
2022/08/30 08:37:44;;;;;;;1.93;0.50;;;19.10;99.90;;;;;;5043205;28;20211;-44
2022/08/30 08:40:17;;;;;;;0.97;0.80;;;19.10;99.90;;;;;;5030908;28;20338;-45
2022/08/30 08:42:56;;;;;;;1.97;0.70;;;19.10;99.90;;;;;;5040060;28;20294;-46
2022/08/30 08:45:37;;;;;;;0.70;0.70;;;19.20;99.90;;;;;;5043918;28;20245;-43
2022/08/30 08:48:10;;;;;;;1.50;0.40;;;19.20;99.90;;;;;;5044656;28;20206;-45
2022/08/30 08:53:33;;;;;;;1.13;0.60;;;19.20;99.90;;;;;;5038331;28;20656;-45
2022/08/30 08:53:36;;;;;;;1.83;0.60;;;19.10;99.90;;;;;;5042115;28;20389;-43
2022/08/30 08:56:06;;;;;;;1.83;0.53;;;19.10;99.90;;;;;;5025575;28;20223;-44
2022/08/30 08:58:40;;;;;;;0.33;0.30;;;19.00;99.90;;;;;;5043802;28;20257;-48
2022/08/30 09:01:08;;;;;;;2.50;0.93;;;19.00;99.90;;;;;;5038070;28;20198;-44
2022/08/30 09:03:38;;;;;;;0.60;0.60;;;19.00;99.90;;;;;;5045247;28;20220;-44
2022/08/30 09:06:20;;;;;;;0.70;0.60;;;19.00;99.90;;;;;;5036906;28;20326;-44
2022/08/30 09:08:47;;;;;;;4.30;0.70;;;19.10;99.90;;;;;;5043116;28;20779;-43
2022/08/30 09:11:21;;;;;;;1.20;0.77;;;19.20;99.90;;;;;;5028043;28;20215;-43
2022/08/30 09:13:48;;;;;;;0.60;0.60;;;19.30;99.90;;;;;;5045169;28;20199;-43
2022/08/30 09:16:47;;;;;;;2.37;1.53;;;19.40;99.90;;;;;;5046952;28;20221;-44
2022/08/30 09:19:32;;;;;;;5.53;1.53;;;19.40;99.90;;;;;;5050338;28;20282;-44
2022/08/30 09:22:01;;;;;;;0.57;0.57;;;19.50;99.90;;;;;;5032838;28;20941;-43
2022/08/30 09:24:37;;;;;;;0.80;0.63;;;19.50;99.90;;;;;;5044499;28;20251;-43
2022/08/30 09:27:15;;;;;;;1.10;0.77;;;19.60;99.90;;;;;;5027820;28;20207;-43
2022/08/30 09:29:50;;;;;;;1.97;0.67;;;19.60;99.90;;;;;;5041547;28;20274;-45
2022/08/30 09:32:24;;;;;;;2.40;0.93;;;19.70;99.90;;;;;;5049581;28;20222;-45
2022/08/30 09:34:53;;;;;;;1.53;0.80;;;19.70;99.90;;;;;;5037417;28;20211;-46
2022/08/30 09:37:31;;;;;;;3.90;1.17;;;19.80;99.90;;;;;;5038252;28;20230;-45
2022/08/30 09:39:59;;;;;;;0.80;0.80;;;19.80;99.90;;;;;;5039014;28;20191;-43
2022/08/30 09:42:29;;;;;;;2.63;1.20;;;19.80;99.90;;;;;;5027690;28;20695;-45
2022/08/30 09:45:09;;;;;;;3.30;1.03;;;19.90;99.90;;;;;;5040468;28;20191;-44
2022/08/30 09:47:39;;;;;;;1.40;0.70;;;19.90;99.90;;;;;;5037921;28;20650;-44
2022/08/30 09:50:10;;;;;;;2.00;0.73;;;19.90;99.90;;;;;;5040087;28;20199;-43
2022/08/30 09:52:57;;;;;;;0.97;0.80;;;20.00;99.90;;;;;;5036111;28;20223;-47
2022/08/30 09:55:47;;;;;;;2.80;1.00;;;20.20;99.90;;;;;;5044339;28;20207;-43
2022/08/30 09:58:23;;;;;;;0.70;0.70;;;20.20;99.90;;;;;;5030115;28;20763;-47
2022/08/30 10:00:56;;;;;;;0.80;0.80;;;20.30;99.90;;;;;;5032033;28;20199;-43
2022/08/30 10:03:30;;;;;;;1.13;0.70;;;20.40;99.90;;;;;;5040759;28;20219;-43
2022/08/30 10:06:06;;;;;;;3.20;0.80;;;20.40;99.90;;;;;;5039566;28;20193;-46
2022/08/30 10:08:50;;;;;;;0.70;0.70;;;20.40;99.90;;;;;;5037686;28;20207;-48
2022/08/30 10:11:26;;;;;;;2.37;0.90;;;20.40;99.90;;;;;;5045775;28;20222;-48
2022/08/30 10:14:35;;;;;;;1.63;0.60;;;20.50;99.90;;;;;;5021952;28;20207;-43
2022/08/30 10:17:10;;;;;;;1.23;0.80;;;20.40;99.90;;;;;;4975144;28;20221;-44
2022/08/30 10:19:49;;;;;;;1.27;0.50;;;20.40;99.90;;;;;;5028737;28;20217;-44
2022/08/30 10:22:24;;;;;;;2.83;0.67;;;20.40;99.90;;;;;;5038091;28;20223;-45
2022/08/30 10:25:02;;;;;;;0.87;0.87;;;20.50;99.90;;;;;;5032801;28;20203;-45
2022/08/30 10:27:33;;;;;;;0.80;0.60;;;20.50;99.90;;;;;;5040914;28;20540;-44
2022/08/30 10:30:04;;;;;;;0.60;0.60;;;20.50;99.90;;;;;;5022936;28;20841;-44
2022/08/30 10:32:38;;;;;;;1.07;0.90;;;20.40;99.90;;;;;;5039475;28;20246;-45
2022/08/30 10:35:09;;;;;;;2.13;0.97;;;20.40;99.90;;;;;;5034962;28;20892;-45
2022/08/30 10:37:41;;;;;;;1.23;0.80;;;20.50;99.90;;;;;;5035760;28;20199;-46
2022/08/30 10:43:02;;;;;;;1.60;0.70;;;20.40;99.90;;;;;;5035788;28;20211;-45
2022/08/30 10:45:35;;;;;;;0.83;0.80;;;20.40;99.90;;;;;;5022443;28;20278;-48
2022/08/30 10:48:11;;;;;;;1.73;0.70;;;20.40;99.90;;;;;;5038171;28;20195;-45
2022/08/30 10:50:43;;;;;;;0.97;0.80;;;20.40;99.90;;;;;;5032339;28;20652;-46
2022/08/30 10:53:14;;;;;;;3.03;0.80;;;20.40;99.90;;;;;;5037113;28;20215;-47
2022/08/30 10:55:45;;;;;;;1.40;0.93;;;20.40;99.90;;;;;;5037053;28;20219;-47
2022/08/30 10:58:13;;;;;;;4.23;0.90;;;20.50;99.90;;;;;;5043587;28;20207;-46
2022/08/30 11:01:00;;;;;;;1.80;0.77;;;20.50;99.90;;;;;;5021490;28;20199;-44
2022/08/30 11:04:06;;;;;;;1.10;0.73;;;20.50;99.90;;;;;;5034240;28;20223;-45
2022/08/30 11:06:40;;;;;;;6.43;1.20;;;20.50;99.90;;;;;;5030045;28;20207;-42
2022/08/30 11:09:30;;;;;;;0.83;0.80;;;20.50;99.90;;;;;;5045268;28;20207;-44
2022/08/30 11:12:25;;;;;;;1.57;0.83;;;20.50;99.90;;;;;;5029354;28;20212;-45
2022/08/30 11:14:53;;;;;;;1.57;0.73;;;20.50;99.90;;;;;;5036769;28;20192;-44
2022/08/30 11:17:27;;;;;;;2.90;0.90;;;20.40;99.90;;;;;;5031027;28;20223;-44
2022/08/30 11:19:56;;;;;;;4.67;1.23;;;20.50;99.90;;;;;;5039901;28;20206;-42
2022/08/30 11:22:27;;;;;;;4.13;0.87;;;20.60;99.90;;;;;;5043044;28;20230;-45
2022/08/30 11:25:36;;;;;;;2.50;0.90;;;20.70;99.90;;;;;;5039582;28;20973;-43
2022/08/30 11:28:05;;;;;;;0.70;0.70;;;20.70;99.90;;;;;;5045588;28;20672;-42
2022/08/30 11:30:48;;;;;;;1.93;0.80;;;20.60;99.90;;;;;;5044244;28;20199;-45
2022/08/30 11:33:41;;;;;;;0.97;0.70;;;20.60;99.90;;;;;;5026415;28;20225;-45
2022/08/30 11:36:08;;;;;;;2.03;0.90;;;20.60;99.90;;;;;;5047524;28;20215;-42
2022/08/30 11:39:05;;;;;;;3.43;0.80;;;20.50;99.90;;;;;;5038633;28;20210;-43
2022/08/30 11:41:38;;;;;;;0.80;0.80;;;20.40;99.90;;;;;;5017742;28;20214;-44
2022/08/30 11:44:27;;;;;;;2.97;1.27;;;20.40;99.90;;;;;;5042904;28;20234;-44
2022/08/30 11:46:57;;;;;;;1.23;1.00;;;20.30;99.90;;;;;;5045628;28;20271;-44
2022/08/30 11:49:52;;;;;;;1.17;0.70;;;20.30;99.90;;;;;;5025915;28;20229;-44
2022/08/30 11:52:38;;;;;;;2.60;0.60;;;20.40;99.90;;;;;;5044750;28;20621;-44
2022/08/30 11:55:26;;;;;;;1.03;0.60;;;20.60;99.90;;;;;;5054148;28;20222;-44
2022/08/30 11:58:00;;;;;;;1.10;0.60;;;20.90;99.90;;;;;;5037465;28;21668;-45
2022/08/30 12:00:32;;;;;;;0.87;0.73;;;21.00;99.90;;;;;;5043904;28;20306;-45
2022/08/30 12:03:02;;;;;;;1.30;0.60;;;21.20;99.90;;;;;;5026146;28;20265;-44
2022/08/30 12:05:52;;;;;;;1.30;0.60;;;21.40;99.90;;;;;;5035281;28;20253;-47
2022/08/30 12:08:43;;;;;;;1.27;0.80;;;21.70;99.90;;;;;;5040724;28;20373;-48
2022/08/30 12:11:43;;;;;;;1.57;0.70;;;22.00;99.90;;;;;;5047675;28;20211;-44
2022/08/30 12:14:46;;;;;;;3.17;1.03;;;22.30;98.90;;;;;;5042574;28;20226;-46
2022/08/30 12:20:27;;;;;;;4.03;0.80;;;22.30;98.50;;;;;;5022858;28;20210;-47
2022/08/30 12:22:55;;;;;;;0.73;0.60;;;22.40;98.40;;;;;;5032559;28;22190;-43
2022/08/30 12:25:27;;;;;;;3.15;1.13;;;22.30;98.80;;;;;;5042566;28;20210;-44
2022/08/30 12:28:09;;;;;;;2.37;0.70;;;22.40;97.90;;;;;;5033760;28;20195;-44
2022/08/30 12:30:38;;;;;;;0.70;0.60;;;22.60;97.10;;;;;;5038603;28;20190;-43
2022/08/30 12:33:06;;;;;;;2.13;0.60;;;22.60;97.20;;;;;;5043790;28;20635;-44
2022/08/30 12:35:34;;;;;;;2.80;1.27;;;22.50;97.20;;;;;;5022905;28;20290;-45
2022/08/30 12:38:04;;;;;;;5.72;1.00;;;22.50;97.00;;;;;;5037275;28;20302;-45
2022/08/30 12:40:33;;;;;;;1.38;0.73;;;22.40;96.70;;;;;;5041767;28;20687;-45
2022/08/30 12:43:03;;;;;;;1.00;1.00;;;22.30;96.70;;;;;;5029225;28;20244;-46
2022/08/30 12:45:33;;;;;;;1.13;0.68;;;22.20;96.50;;;;;;5032411;28;20934;-44
2022/08/30 12:48:04;;;;;;;1.60;0.80;;;22.30;96.10;;;;;;5037153;28;20202;-45
2022/08/30 12:50:36;;;;;;;1.05;0.80;;;22.00;95.90;;;;;;5022622;28;20214;-43
2022/08/30 12:53:06;;;;;;;2.65;0.90;;;21.80;96.30;;;;;;5042332;28;20215;-44
2022/08/30 12:55:36;;;;;;;1.35;0.70;;;21.60;96.40;;;;;;5026236;28;20556;-46
2022/08/30 12:58:06;;;;;;;0.70;0.70;;;21.40;96.60;;;;;;5042396;28;20214;-47
2022/08/30 13:00:34;;;;;;;1.00;0.57;;;21.40;96.50;;;;;;5029619;28;21687;-44
2022/08/30 13:03:05;;;;;;;1.85;0.60;;;21.50;96.50;;;;;;5043476;28;20226;-47
2022/08/30 13:05:43;;;;;;;1.42;0.70;;;21.60;96.30;;;;;;5026272;28;20203;-47
2022/08/30 13:08:14;;;;;;;1.17;0.70;;;21.40;96.10;;;;;;5037788;28;20238;-46
2022/08/30 13:10:50;;;;;;;0.50;0.50;;;21.40;96.30;;;;;;5037458;28;20217;-44
2022/08/30 13:13:28;;;;;;;0.82;0.70;;;21.40;96.00;;;;;;5044712;28;20819;-43
2022/08/30 13:15:55;;;;;;;2.08;0.60;;;21.50;95.60;;;;;;5039680;28;20207;-46